Time;durP1;ratioP1;P1;durP2;ratioP2;P2;SDS_P1;SDS_P2;PMS_P1;PMS_P2;Temp;Humidity;BMP_temperature;BMP_pressure;BME280_temperature;BME280_humidity;BME280_pressure;Samples;Min_cycle;Max_cycle;Signal;HPM_P1;HPM_P2
2022/09/09 00:00:15;;;;;;;;;;;;;;;13.74;88.38;97006.22;4867126;29;20376;-64
2022/09/09 00:02:45;;;;;;;;;;;;;;;13.88;87.38;97005.59;4861925;29;20059;-65
2022/09/09 00:05:21;;;;;;;;;;;;;;;13.78;88.08;97012.72;4866493;29;19924;-65
2022/09/09 00:07:48;;;;;;;;;;;;;;;13.61;89.27;97015.84;4866526;29;19924;-64
2022/09/09 00:10:24;;;;;;;;;;;;;;;13.51;90.44;97007.72;4867473;29;20470;-64
2022/09/09 00:12:57;;;;;;;;;;;;;;;13.61;88.52;96998.69;4871342;29;19930;-65
2022/09/09 00:15:52;;;;;;;;;;;;;;;13.71;88.27;97003.25;4868738;29;20019;-64
2022/09/09 00:18:29;;;;;;;;;;;;;;;13.77;88.79;97005.66;4864116;29;19928;-65
2022/09/09 00:21:06;;;;;;;;;;;;;;;13.73;89.38;96991.00;4868734;29;19923;-63
2022/09/09 00:23:33;;;;;;;;;;;;;;;13.54;91.12;97004.44;4861346;29;19924;-64
2022/09/09 00:26:14;;;;;;;;;;;;;;;13.48;90.19;97005.53;4868170;29;19923;-65
2022/09/09 00:29:01;;;;;;;;;;;;;;;13.46;90.39;96996.84;4861526;29;20379;-65
2022/09/09 00:31:29;;;;;;;;;;;;;;;13.61;89.18;96996.78;4859449;29;19930;-64
2022/09/09 00:34:00;;;;;;;;;;;;;;;13.71;88.53;96987.72;4874247;29;20397;-63
2022/09/09 00:36:28;;;;;;;;;;;;;;;13.78;89.00;96987.41;4867582;29;20629;-65
2022/09/09 00:38:57;;;;;;;;;;;;;;;13.92;87.70;96993.03;4874388;29;19962;-64
2022/09/09 00:41:35;;;;;;;;;;;;;;;14.14;85.88;96995.34;4874960;29;19928;-64
2022/09/09 00:44:13;;;;;;;;;;;;;;;14.09;86.16;96992.66;4870629;29;20006;-65
2022/09/09 00:46:39;;;;;;;;;;;;;;;13.89;87.15;96988.16;4856995;29;19931;-65
2022/09/09 00:49:25;;;;;;;;;;;;;;;13.81;88.26;96997.75;4861344;29;19963;-65
2022/09/09 00:52:18;;;;;;;;;;;;;;;13.92;87.84;97001.22;4873457;29;19930;-65
2022/09/09 00:54:50;;;;;;;;;;;;;;;13.90;88.64;97001.47;4858926;29;19967;-64
2022/09/09 00:57:31;;;;;;;;;;;;;;;13.74;90.76;96998.06;4871141;29;20615;-63
2022/09/09 01:00:17;;;;;;;;;;;;;;;13.70;90.02;96990.72;4859520;29;20410;-63
2022/09/09 01:03:02;;;;;;;;;;;;;;;13.84;89.19;96989.03;4873443;29;19963;-65
2022/09/09 01:05:44;;;;;;;;;;;;;;;13.84;89.18;96994.47;4873889;29;19931;-63
2022/09/09 01:08:19;;;;;;;;;;;;;;;13.91;89.34;96978.63;4889197;29;19924;-65
2022/09/09 01:10:53;;;;;;;;;;;;;;;13.87;89.95;96987.63;4865008;29;19963;-64
2022/09/09 01:13:26;;;;;;;;;;;;;;;13.86;89.43;96986.81;4868376;29;20284;-64
2022/09/09 01:15:53;;;;;;;;;;;;;;;13.96;87.60;96990.59;4867857;29;19924;-64
2022/09/09 01:18:27;;;;;;;;;;;;;;;14.09;86.42;96987.22;4879397;29;20314;-64
2022/09/09 01:21:00;;;;;;;;;;;;;;;14.26;84.55;96996.88;4878321;29;19970;-65
2022/09/09 01:23:38;;;;;;;;;;;;;;;14.39;83.68;97000.84;4859740;29;19924;-64
2022/09/09 01:26:26;;;;;;;;;;;;;;;14.42;83.83;96995.63;4868667;29;19934;-64
2022/09/09 01:28:55;;;;;;;;;;;;;;;14.53;82.78;96999.06;4877069;29;19927;-64
2022/09/09 01:31:32;;;;;;;;;;;;;;;14.66;81.48;97008.50;4872208;29;20005;-65
2022/09/09 01:33:58;;;;;;;;;;;;;;;14.70;81.75;97006.00;4893052;29;20454;-65
2022/09/09 01:36:42;;;;;;;6.55;0.90;;;;;;;14.80;81.66;97014.13;4892392;29;20301;-64
2022/09/09 01:39:09;;;;;;;;;;;;;;;14.73;82.18;97010.88;4880515;29;20049;-64
2022/09/09 01:41:35;;;;;;;;;;;;;;;14.75;81.59;97016.88;4874131;29;20051;-64
2022/09/09 01:44:07;;;;;;;;;;;;;;;14.84;80.83;97019.78;4882319;29;19923;-65
2022/09/09 01:46:35;;;;;;;;;;;;;;;14.90;80.56;97017.81;4869316;29;19957;-65
2022/09/09 01:49:04;;;;;;;;;;;;;;;14.89;81.08;97025.19;4856833;29;20601;-64
2022/09/09 01:51:31;;;;;;;;;;;;;;;14.95;80.03;97024.03;4868107;29;20011;-64
2022/09/09 01:54:02;;;;;;;;;;;;;;;15.01;78.92;97024.81;4856048;29;19924;-64
2022/09/09 01:56:39;;;;;;;;;;;;;;;15.18;78.79;97004.41;4870284;29;19924;-65
2022/09/09 01:59:12;;;;;;;;;;;;;;;15.14;79.38;96992.50;4871552;29;19928;-63
2022/09/09 02:01:54;;;;;;;;;;;;;;;15.18;80.14;96997.06;4867549;29;20031;-65
2022/09/09 02:04:56;;;;;;;;;;;;;;;15.05;80.55;97004.03;4861350;29;19924;-64
2022/09/09 02:07:41;;;;;;;;;;;;;;;15.04;80.04;97004.31;4847293;29;19923;-64
2022/09/09 02:10:33;;;;;;;;;;;;;;;14.98;79.88;96998.09;4871268;29;19924;-65
2022/09/09 02:13:13;;;;;;;;;;;;;;;14.99;80.03;96998.91;4876682;29;19923;-64
2022/09/09 02:15:40;;;;;;;;;;;;;;;14.87;80.40;97004.75;4883477;29;19982;-64
2022/09/09 02:18:08;;;;;;;;;;;;;;;14.83;81.22;97018.16;4891096;29;19982;-64
2022/09/09 02:20:37;;;;;;;;;;;;;;;14.75;81.38;97018.78;4860885;29;19928;-65
2022/09/09 02:23:05;;;;;;;;;;;;;;;14.76;81.37;97012.22;4869268;29;19924;-64
2022/09/09 02:25:33;;;;;;;;;;;;;;;14.63;82.84;97000.88;4878425;29;19923;-64
2022/09/09 02:28:21;;;;;;;;;;;;;;;14.63;82.74;97005.53;4892284;29;19927;-65
2022/09/09 02:30:53;;;;;;;;;;;;;;;14.53;83.16;97007.25;4873600;29;20023;-63
2022/09/09 02:33:19;;;;;;;;;;;;;;;14.28;84.64;97009.13;4857076;29;19924;-64
2022/09/09 02:35:50;;;;;;;;;;;;;;;14.09;86.71;96989.94;4881894;29;19930;-63
2022/09/09 02:38:21;;;;;;;;;;;;;;;14.07;86.51;96996.75;4870866;29;20065;-65
2022/09/09 02:40:58;;;;;;;;;;;;;;;14.13;85.71;96995.63;4868112;29;19971;-63
2022/09/09 02:43:25;;;;;;;;;;;;;;;14.10;86.13;96994.28;4886601;29;19930;-65
2022/09/09 02:46:10;;;;;;;;;;;;;;;14.13;86.05;96987.44;4875716;29;19924;-65
2022/09/09 02:48:39;;;;;;;;;;;;;;;14.04;86.78;96979.06;4863409;29;19931;-65
2022/09/09 02:51:10;;;;;;;;;;;;;;;14.04;86.81;96979.06;4871187;29;19924;-64
2022/09/09 02:53:42;;;;;;;;;;;;;;;14.05;86.94;96978.78;4871958;29;19976;-65
2022/09/09 02:56:13;;;;;;;;;;;;;;;13.96;87.76;96976.97;4867655;29;19957;-64
2022/09/09 02:58:42;;;;;;;;;;;;;;;14.13;86.36;96966.50;4870621;29;19959;-63
2022/09/09 03:01:08;;;;;;;;;;;;;;;14.26;85.10;96975.09;4856267;29;19963;-65
2022/09/09 03:03:35;;;;;;;;;;;;;;;14.28;85.50;96972.88;4872136;29;19927;-65
2022/09/09 03:06:06;;;;;;;;;;;;;;;13.90;87.59;96973.47;4862669;29;19928;-65
2022/09/09 03:08:33;;;;;;;;;;;;;;;13.82;88.30;96974.88;4856048;29;19928;-64
2022/09/09 03:11:03;;;;;;;;;;;;;;;13.76;88.17;96973.28;4865527;29;19928;-64
2022/09/09 03:13:33;;;;;;;;;;;;;;;13.56;89.26;96971.53;4887209;29;19923;-63
2022/09/09 03:15:59;;;;;;;;;;;;;;;13.01;92.55;96965.75;4853475;29;19947;-65
2022/09/09 03:18:29;;;;;;;;;;;;;;;12.59;96.39;96975.13;4859410;29;19975;-65
2022/09/09 03:20:57;;;;;;;;;;;;;;;12.62;96.76;96974.59;4866179;29;19936;-63
2022/09/09 03:23:24;;;;;;;;;;;;;;;12.65;95.93;96971.31;4862951;29;20476;-65
2022/09/09 03:25:51;;;;;;;;;;;;;;;12.64;96.08;96982.47;4864641;29;19923;-64
2022/09/09 03:28:24;;;;;;;;;;;;;;;12.68;95.23;96976.19;4869969;29;20589;-64
2022/09/09 03:30:51;;;;;;;;;;;;;;;12.63;95.66;96984.34;4868433;29;19928;-64
2022/09/09 03:33:18;;;;;;;;;;;;;;;12.53;96.37;96982.47;4853326;29;20026;-65
2022/09/09 03:35:48;;;;;;;;;;;;;;;12.56;96.18;96983.81;4868887;29;19931;-64
2022/09/09 03:38:17;;;;;;;;;;;;;;;12.63;95.26;96981.63;4879148;29;20031;-64
2022/09/09 03:40:55;;;;;;;;;;;;;;;12.56;95.05;96981.91;4861395;29;19931;-64
2022/09/09 03:43:23;;;;;;;;;;;;;;;12.48;95.83;96996.06;4888019;29;19958;-64
2022/09/09 03:45:51;;;;;;;;;;;;;;;12.48;95.01;97002.31;4876629;29;20022;-64
2022/09/09 03:48:18;;;;;;;;;;;;;;;12.57;94.53;97002.56;4880845;29;20390;-65
2022/09/09 03:50:45;;;;;;;;;;;;;;;12.73;93.14;96997.09;4885421;29;19979;-64
2022/09/09 03:53:12;;;;;;;;;;;;;;;12.81;92.33;96993.81;4878741;29;20400;-65
2022/09/09 03:55:38;;;;;;;;;;;;;;;12.72;93.09;96995.47;4869901;29;19924;-63
2022/09/09 03:58:05;;;;;;;;;;;;;;;12.78;92.90;96993.56;4866825;29;20387;-65
2022/09/09 04:00:32;;;;;;;;;;;;;;;12.83;92.03;96990.84;4872980;29;19923;-64
2022/09/09 04:02:58;;;;;;;;;;;;;;;12.88;91.48;96996.25;4878749;29;20022;-65
2022/09/09 04:05:25;;;;;;;;;;;;;;;12.99;90.99;96999.75;4865886;29;20693;-64
2022/09/09 04:07:51;;;;;;;;;;;;;;;13.11;89.91;97000.25;4878749;29;19928;-65
2022/09/09 04:10:17;;;;;;;;;;;;;;;13.27;88.46;96992.03;4864480;29;19924;-65
2022/09/09 04:12:44;;;;;;;;;;;;;;;13.50;86.66;96985.13;4881627;29;19924;-65
2022/09/09 04:15:14;;;;;;;;;;;;;;;13.54;86.43;96988.13;4875599;29;20307;-64
2022/09/09 04:17:42;;;;;;;;;;;;;;;13.63;86.05;96991.88;4879828;29;19924;-64
2022/09/09 04:20:11;;;;;;;;;;;;;;;13.76;84.95;97001.31;4884521;29;20311;-65
2022/09/09 04:22:41;;;;;;;;;;;;;;;13.91;84.27;97002.31;4884062;29;19943;-65
2022/09/09 04:25:07;;;;;;;;;;;;;;;13.98;83.92;96989.19;4870116;29;20402;-64
2022/09/09 04:27:34;;;;;;;;;;;;;;;14.05;83.16;96995.13;4877549;29;20404;-64
2022/09/09 04:30:00;;;;;;;;;;;;;;;14.09;83.03;96991.84;4861860;29;19928;-64
2022/09/09 04:32:31;;;;;;;;;;;;;;;14.06;82.92;96995.94;4858543;29;19928;-65
2022/09/09 04:34:59;;;;;;;;;;;;;;;14.03;82.76;96999.22;4869518;29;20023;-64
2022/09/09 04:37:26;;;;;;;;;;;;;;;14.03;82.19;96999.22;4887656;29;19943;-64
2022/09/09 04:39:54;;;;;;;;;;;;;;;14.00;82.76;97002.50;4879267;29;19924;-63
2022/09/09 04:42:20;;;;;;;;;;;;;;;14.00;82.45;97002.50;4886734;29;20399;-64
2022/09/09 04:44:46;;;;;;;;;;;;;;;13.96;82.62;97001.47;4874365;29;20299;-63
2022/09/09 04:47:14;;;;;;;;;;;;;;;14.01;82.42;97012.31;4859484;29;19928;-64
2022/09/09 04:49:41;;;;;;;;;;;;;;;13.96;82.70;97013.16;4873525;29;20413;-64
2022/09/09 04:52:07;;;;;;;;;;;;;;;13.91;83.10;97014.03;4876784;29;20434;-65
2022/09/09 04:54:35;;;;;;;;;;;;;;;13.83;83.24;97020.06;4870277;29;20015;-65
2022/09/09 04:57:01;;;;;;;;;;;;;;;13.93;83.26;97019.16;4875231;29;19948;-64
2022/09/09 04:59:28;;;;;;;;;;;;;;;13.80;83.69;97023.34;4862099;29;19924;-64
2022/09/09 05:01:57;;;;;;;;;;;;;;;13.82;83.44;97026.56;4855055;29;19931;-65
2022/09/09 05:04:23;;;;;;;;;;;;;;;13.87;83.50;97029.28;4863774;29;19928;-63
2022/09/09 05:06:50;;;;;;;;;;;;;;;13.86;83.33;97032.28;4855907;29;20360;-63
2022/09/09 05:09:16;;;;;;;;;;;;;;;13.94;83.19;97034.41;4865519;29;19928;-62
2022/09/09 05:11:44;;;;;;;;;;;;;;;13.96;82.62;97028.69;4867171;29;19927;-63
2022/09/09 05:14:31;;;;;;;;;;;;;;;14.00;82.47;97030.53;4875105;29;19997;-62
2022/09/09 05:16:59;;;;;;;;;;;;;;;14.05;82.08;97030.50;4855168;29;19924;-64
2022/09/09 05:19:26;;;;;;;;;;;;;;;14.02;82.24;97030.25;4876989;29;19927;-63
2022/09/09 05:21:53;;;;;;;;;;;;;;;14.08;82.04;97029.13;4893758;29;20022;-64
2022/09/09 05:24:25;;;;;;;;;;;;;;;14.08;81.88;97031.84;4875149;29;20396;-65
2022/09/09 05:26:59;;;;;;;;;;;;;;;14.07;81.99;97037.59;4873226;29;19924;-64
2022/09/09 05:29:26;;;;;;;;;;;;;;;14.13;81.61;97044.63;4862514;29;19928;-64
2022/09/09 05:31:52;;;;;;;;;;;;;;;14.12;82.15;97049.25;4854770;29;19967;-64
2022/09/09 05:34:20;;;;;;;;;;;;;;;14.20;81.13;97047.03;4859083;29;19930;-63
2022/09/09 05:36:48;;;;;;;;;;;;;;;14.27;81.06;97039.34;4874422;29;19923;-64
2022/09/09 05:39:15;;;;;;;;;;;;;;;14.38;79.88;97034.63;4872458;29;20054;-64
2022/09/09 05:41:41;;;;;;;;;;;;;;;14.44;79.39;97041.66;4873431;29;19955;-63
2022/09/09 05:44:08;;;;;;;;;;;;;;;14.49;79.57;97043.53;4878888;29;19985;-65
2022/09/09 05:46:37;;;;;;;;;;;;;;;14.54;79.38;97046.19;4892880;29;19979;-63
2022/09/09 05:49:05;;;;;;;;;;;;;;;14.52;78.90;97040.25;4873411;29;20314;-63
2022/09/09 05:51:32;;;;;;;;;;;;;;;14.53;78.92;97039.94;4872532;29;20065;-64
2022/09/09 05:54:05;;;;;;;;;;;;;;;14.53;78.64;97042.66;4865404;29;19924;-64
2022/09/09 05:56:35;;;;;;;;;;;;;;;14.39;79.88;97049.88;4870812;29;19928;-63
2022/09/09 05:59:02;;;;;;;;;;;;;;;14.39;80.22;97053.41;4856297;29;19936;-64
2022/09/09 06:01:30;;;;;;;;;;;;;;;14.47;79.83;97046.53;4854145;29;19960;-64
2022/09/09 06:03:57;;;;;;;;;;;;;;;14.47;79.63;97056.59;4870343;29;20082;-63
2022/09/09 06:06:25;;;;;;;;;;;;;;;14.53;79.97;97050.03;4871189;29;20382;-63
2022/09/09 06:08:57;;;;;;;;;;;;;;;14.43;79.90;97057.19;4868752;29;20017;-64
2022/09/09 06:11:26;;;;;;;;;;;;;;;14.29;80.36;97048.84;4891154;29;19923;-63
2022/09/09 06:13:54;;;;;;;;;;;;;;;14.25;80.65;97047.78;4858290;29;19924;-62
2022/09/09 06:16:23;;;;;;;;;;;;;;;14.28;80.56;97057.31;4853768;29;19924;-64
2022/09/09 06:18:50;;;;;;;;;;;;;;;14.29;80.79;97048.84;4867010;29;19962;-64
2022/09/09 06:21:18;;;;;;;;;;;;;;;14.18;81.48;97050.84;4890590;29;19931;-64
2022/09/09 06:23:46;;;;;;;;;;;;;;;14.13;81.63;97052.78;4874722;29;19927;-64
2022/09/09 06:26:13;;;;;;;;;;;;;;;14.20;81.36;97052.47;4873711;29;19927;-64
2022/09/09 06:28:42;;;;;;;;;;;;;;;14.02;82.73;97055.59;4868514;29;19931;-64
2022/09/09 06:31:11;;;;;;;;;;;;;;;13.89;83.30;97054.28;4872224;29;19943;-63
2022/09/09 06:33:40;;;;;;;;;;;;;;;13.87;83.42;97056.50;4870828;29;20666;-64
2022/09/09 06:36:12;;;;;;;;;;;;;;;13.87;83.80;97061.13;4872233;29;19923;-64
2022/09/09 06:38:38;;;;;;;;;;;;;;;13.94;83.69;97063.53;4864354;29;19932;-64
2022/09/09 06:41:05;;;;;;;;;;;;;;;14.10;83.18;97061.50;4857521;29;19962;-64
2022/09/09 06:43:32;;;;;;;;;;;;;;;14.40;81.56;97060.47;4860874;29;19949;-63
2022/09/09 06:46:00;;;;;;;;;;;;;;;14.60;81.50;97061.41;4853350;29;19924;-64
2022/09/09 06:48:27;;;;;;;;;;;;;;;14.66;79.93;97060.25;4853891;29;20009;-64
2022/09/09 06:51:05;;;;;;;;;;;;;;;14.70;80.27;97064.03;4871292;29;20427;-63
2022/09/09 06:53:35;;;;;;;;;;;;;;;14.79;79.25;97066.19;4870356;29;20014;-63
2022/09/09 06:56:11;;;;;;;;;;;;;;;14.75;79.82;97063.19;4870685;29;20493;-64
2022/09/09 06:58:44;;;;;;;;;;;;;;;14.82;79.25;97062.88;4872072;29;19979;-64
2022/09/09 07:01:21;;;;;;;;;;;;;;;14.83;79.31;97064.50;4871362;29;20022;-63
2022/09/09 07:03:50;;;;;;;;;;;;;;;14.82;79.17;97073.78;4871890;29;19923;-64
2022/09/09 07:06:21;;;;;;;;;;;;;;;14.89;79.28;97068.00;4871242;29;20355;-65
2022/09/09 07:08:48;;;;;;;;;;;;;;;14.94;79.37;97074.22;4871978;29;20403;-64
2022/09/09 07:11:26;;;;;;;;;;;;;;;15.12;78.48;97071.03;4872579;29;19928;-64
2022/09/09 07:13:53;;;;;;;;;;;;;;;15.20;78.60;97071.22;4890741;29;20356;-64
2022/09/09 07:16:21;;;;;;;;;;;;;;;15.25;77.72;97081.25;4889918;29;20394;-64
2022/09/09 07:18:47;;;;;;;;;;;;;;;15.42;77.86;97074.50;4890308;29;19923;-63
2022/09/09 07:21:14;;;;;;;;;;;;;;;15.59;77.46;97074.06;4889911;29;20387;-64
2022/09/09 07:23:41;;;;;;;;;;;;;;;15.72;77.50;97064.31;4891823;29;20359;-65
2022/09/09 07:26:09;;;;;;;;;;;;;;;15.68;76.53;97066.00;4878239;29;20013;-63
2022/09/09 07:28:36;;;;;;;;;;;;;;;15.81;75.97;97075.41;4871942;29;19924;-64
2022/09/09 07:31:04;;;;;;;;;;;;;;;15.83;75.72;97065.81;4871505;29;19931;-64
2022/09/09 07:33:36;;;;;;;;;;;;;;;15.92;75.22;97068.69;4871729;29;19923;-63
2022/09/09 07:36:07;;;;;;;;;;;;;;;16.14;75.16;97071.97;4876302;29;20021;-63
2022/09/09 07:38:38;;;;;;;;;;;;;;;16.34;75.28;97066.22;4853048;29;19947;-63
2022/09/09 07:41:06;;;;;;;;;;;;;;;16.57;73.94;97055.44;4852828;29;19924;-63
2022/09/09 07:43:33;;;;;;;;;;;;;;;16.86;73.05;97067.25;4888623;29;19927;-63
2022/09/09 07:46:01;;;;;;;;;;;;;;;16.93;72.65;97064.13;4872668;29;19923;-64
2022/09/09 07:48:28;;;;;;;;;;;;;;;16.86;72.13;97070.81;4873113;29;19951;-63
2022/09/09 07:51:02;;;;;;;;;;;;;;;16.82;71.50;97064.31;4870631;29;20305;-64
2022/09/09 07:53:30;;;;;;;;;;;;;;;16.96;71.43;97063.53;4871465;29;19981;-64
2022/09/09 07:56:04;;;;;;;;;;;;;;;16.85;70.95;97069.16;4872980;29;19936;-64
2022/09/09 07:58:30;;;;;;;;;;;;;;;16.78;70.26;97071.50;4871392;29;20399;-63
2022/09/09 08:01:08;;;;;;;;;;;;;;;16.87;71.15;97072.44;4870569;29;19975;-64
2022/09/09 08:03:34;;;;;;;;;;;;;;;16.94;70.99;97066.56;4872467;29;19924;-63
2022/09/09 08:06:02;;;;;;;;;;;;;;;17.06;72.04;97063.38;4871433;29;20027;-63
2022/09/09 08:08:30;;;;;;;;;;;;;;;17.11;70.65;97066.03;4872147;29;19971;-64
2022/09/09 08:11:01;;;;;;;;;;;;;;;17.16;70.22;97068.66;4871389;29;19924;-63
2022/09/09 08:13:27;;;;;;;;;;;;;;;17.18;70.35;97089.41;4887237;29;19931;-64
2022/09/09 08:15:54;;;;;;;;;;;;;;;17.30;70.41;97089.75;4890740;29;19935;-63
2022/09/09 08:18:23;;;;;;;;;;;;;;;17.45;69.35;97087.81;4888829;29;19971;-63
2022/09/09 08:20:49;;;;;;;;;;;;;;;17.57;69.73;97093.59;4889321;29;19924;-62
2022/09/09 08:23:16;;;;;;;;;;;;;;;17.68;70.15;97083.25;4891422;29;19958;-61
2022/09/09 08:25:44;;;;;;;;;;;;;;;17.80;68.47;97088.22;4880743;29;20414;-61
2022/09/09 08:28:11;;;;;;;;;;;;;;;17.89;68.42;97075.41;4856231;29;19923;-62
2022/09/09 08:30:38;;;;;;;;;;;;;;;17.87;67.90;97063.16;4871726;29;20439;-62
2022/09/09 08:33:05;;;;;;;;;;;;;;;17.88;66.34;97054.59;4879241;29;20395;-61
2022/09/09 08:35:32;;;;;;;;;;;;;;;18.07;66.46;97057.19;4885775;29;19924;-61
2022/09/09 08:38:01;;;;;;;;;;;;;;;18.28;67.92;97073.19;4885408;29;19948;-61
2022/09/09 08:40:36;;;;;;;;;;;;;;;18.24;66.33;97088.63;4882911;29;19930;-60
2022/09/09 08:43:04;;;;;;;;;;;;;;;18.02;66.64;97083.91;4883823;29;19923;-62
2022/09/09 08:45:46;;;;;;;;;;;;;;;18.06;67.00;97082.97;4885540;29;19923;-61
2022/09/09 08:48:29;;;;;;;;;;;;;;;18.02;67.27;97075.69;4892649;29;19979;-62
2022/09/09 08:51:01;;;;;;;;;;;;;;;17.86;67.00;97072.47;4879247;29;19998;-61
2022/09/09 08:53:41;;;;;;;;;;;;;;;18.04;67.97;97074.25;4885354;29;19930;-61
2022/09/09 08:56:21;;;;;;;;;;;;;;;18.10;66.10;97082.38;4880979;29;19952;-61
2022/09/09 08:58:52;;;;;;;;;;;;;;;17.96;67.48;97083.22;4874560;29;20008;-61
2022/09/09 09:01:28;;;;;;;;;;;;;;;18.20;67.39;97082.16;4874176;29;19943;-61
2022/09/09 09:04:04;;;;;;;;;;;;;;;18.27;64.87;97087.19;4874553;29;19927;-61
2022/09/09 09:06:30;;;;;;;;;;;;;;;18.40;64.54;97091.03;4874151;29;19999;-60
2022/09/09 09:08:57;;;;;;;;;;;;;;;18.46;62.84;97090.59;4884043;29;19942;-61
2022/09/09 09:11:24;;;;;;;;;;;;;;;18.48;63.49;97082.06;4888880;29;19943;-61
2022/09/09 09:14:09;;;;;;;;;;;;;;;18.31;61.76;97074.50;4892284;29;20339;-61
2022/09/09 09:16:45;;;;;;;;;;;;;;;17.96;63.49;97079.66;4892457;29;19930;-61
2022/09/09 09:19:14;;;;;;;;;;;;;;;18.20;63.35;97082.16;4891661;29;20026;-61
2022/09/09 09:21:41;;;;;;;;;;;;;;;18.35;63.03;97078.22;4891964;29;20150;-61
2022/09/09 09:24:16;;;;;;;;;;;;;;;18.43;62.96;97074.75;4892361;29;19927;-61
2022/09/09 09:26:47;;;;;;;;;;;;;;;18.18;63.23;97073.44;4874822;29;19984;-61
2022/09/09 09:29:15;;;;;;;;;;;;;;;18.18;63.41;97068.75;4873470;29;19923;-61
2022/09/09 09:31:51;;;;;;;;;;;;;;;18.11;64.52;97073.88;4873244;29;20380;-61
2022/09/09 09:34:17;;;;;;;;;;;;;;;18.26;63.51;97056.25;4875961;29;20030;-61
2022/09/09 09:36:53;;;;;;;;;;;;;;;18.56;61.56;97056.63;4881389;29;19923;-61
2022/09/09 09:39:24;;;;;;;;;;;;;;;18.90;59.99;97061.84;4882867;29;19927;-61
2022/09/09 09:42:15;;;;;;;;;;;;;;;19.27;59.65;97067.22;4878845;29;20494;-61
2022/09/09 09:44:47;;;;;;;;;;;;;;;19.34;54.50;97042.84;4878896;29;19923;-61
2022/09/09 09:47:21;;;;;;;;;;;;;;;19.27;57.11;97050.75;4872532;29;20494;-60
2022/09/09 09:50:16;;;;;;;;;;;;;;;18.98;60.42;97055.56;4874466;29;19930;-61
2022/09/09 09:52:53;;;;;;;;;;;;;;;18.99;60.97;97054.47;4857170;29;20623;-60
2022/09/09 09:55:20;;;;;;;;;;;;;;;18.99;61.25;97051.72;4874430;29;20455;-60
2022/09/09 09:57:46;;;;;;;;;;;;;;;18.87;62.57;97054.22;4874045;29;19924;-60
2022/09/09 10:00:20;;;;;;;;;;;;;;;18.93;59.73;97058.44;4874318;29;20014;-61
2022/09/09 10:02:56;;;;;;;;;;;;;;;18.90;59.47;97042.66;4871866;29;19931;-62
2022/09/09 10:05:27;;;;;;;;;;;;;;;19.10;58.96;97044.84;4873062;29;19923;-60
2022/09/09 10:08:08;;;;;;;;;;;;;;;19.28;59.90;97044.13;4873291;29;20356;-61
2022/09/09 10:10:54;;;;;;;;;;;;;;;19.24;58.88;97046.69;4873627;29;20392;-60
2022/09/09 10:13:24;;;;;;;;;;;;;;;19.31;60.27;97040.75;4889673;29;20014;-60
2022/09/09 10:16:13;;;;;;;;;;;;;;;19.48;58.45;97049.03;4892571;29;20019;-61
2022/09/09 10:18:39;;;;;;;;;;;;;;;19.48;58.43;97045.47;4892591;29;19930;-61
2022/09/09 10:21:32;;;;;;;;;;;;;;;19.38;56.50;97043.03;4891673;29;20030;-61
2022/09/09 10:24:07;;;;;;;;;;;;;;;19.41;56.47;97040.44;4892773;29;19931;-61
2022/09/09 10:26:33;;;;;;;;;;;;;;;19.39;56.74;97045.47;4877237;29;20010;-62
2022/09/09 10:29:00;;;;;;;;;;;;;;;19.40;57.76;97044.31;4874067;29;19929;-61
2022/09/09 10:31:38;;;;;;;;;;;;;;;19.47;52.42;97041.91;4873559;29;20010;-60
2022/09/09 10:34:23;;;;;;;;;;;;;;;19.44;52.09;97044.47;4873944;29;19924;-60
2022/09/09 10:36:56;;;;;;;;;;;;;;;19.40;53.18;97043.50;4873796;29;19923;-61
2022/09/09 10:39:34;;;;;;;;;;;;;;;19.61;52.09;97041.00;4873199;29;19946;-61
2022/09/09 10:42:14;;;;;;;;;;;;;;;19.91;49.78;97059.63;4874919;29;20130;-62
2022/09/09 10:44:43;;;;;;;;;;;;;;;20.13;52.72;97056.75;4879993;29;19924;-62
2022/09/09 10:47:28;;;;;;;;;;;;;;;20.50;53.80;97050.13;4873446;29;19958;-62
2022/09/09 10:49:55;;;;;;;;;;;;;;;20.11;54.31;97058.19;4873330;29;20380;-62
2022/09/09 10:52:31;;;;;;;;;;;;;;;19.59;54.75;97067.94;4873347;29;19930;-61
2022/09/09 10:55:13;;;;;;;;;;;;;;;18.86;57.60;97080.84;4872533;29;20096;-62
2022/09/09 10:57:47;;;;;;;;;;;;;;;18.48;58.04;97114.94;4873599;29;20265;-61
2022/09/09 11:00:16;;;;;;;;;;;;;;;17.80;61.17;97101.91;4873350;29;20295;-60
2022/09/09 11:02:43;;;;;;;;;;;;;;;17.41;63.47;97112.25;4872692;29;20382;-62
2022/09/09 11:05:14;;;;;;;;;;;;;;;17.19;65.39;97119.22;4873653;29;20399;-61
2022/09/09 11:07:43;;;;;;;;;;;;;;;17.22;65.95;97113.16;4873388;29;20118;-61
2022/09/09 11:10:20;;;;;;;;;;;;;;;16.99;66.46;97117.63;4873447;29;20452;-61
2022/09/09 11:12:49;;;;;;;;;;;;;;;16.85;67.20;97123.06;4884071;29;19959;-61
2022/09/09 11:15:23;;;;;;;;;;;;;;;16.99;66.83;97126.63;4891779;29;19931;-61
2022/09/09 11:17:52;;;;;;;;;;;;;;;16.89;68.51;97135.03;4891747;29;19962;-60
2022/09/09 11:20:18;;;;;;;;;;;;;;;16.98;72.58;97138.69;4891631;29;19933;-63
2022/09/09 11:22:53;;;;;;;;;;;;;;;16.96;70.59;97146.41;4891266;29;20022;-60
2022/09/09 11:25:26;;;;;;;;;;;;;;;16.83;73.82;97141.66;4885884;29;19930;-60
2022/09/09 11:28:11;;;;;;;;;;;;;;;16.68;74.50;97137.25;4872867;29;19923;-60
2022/09/09 11:30:55;;;;;;;;;;;;;;;16.66;73.20;97134.03;4872973;29;20026;-61
2022/09/09 11:33:41;;;;;;;;;;;;;;;16.34;77.19;97133.69;4872904;29;19928;-60
2022/09/09 11:36:26;;;;;;;;;;;;;;;16.19;77.23;97124.63;4875287;29;19930;-61
2022/09/09 11:38:58;;;;;;;;;;;;;;;16.55;76.49;97116.97;4886804;29;19923;-61
2022/09/09 11:41:33;;;;;;;;;;;;;;;16.69;75.87;97109.63;4890563;29;20494;-60
2022/09/09 11:44:00;;;;;;;;;;;;;;;17.35;76.27;97094.28;4891941;29;19958;-61
2022/09/09 11:46:35;;;;;;;;;;;;;;;17.08;72.99;97091.25;4892041;29;20034;-61
2022/09/09 11:49:03;;;;;;;;;;;;;;;17.64;70.75;97079.50;4885971;29;20355;-61
2022/09/09 11:51:30;;;;;;;;;;;;;;;17.69;67.15;97060.22;4885620;29;20025;-60
2022/09/09 11:54:20;;;;;;;;;;;;;;;18.24;67.38;97055.75;4891010;29;19923;-60
2022/09/09 11:56:46;;;;;;;;;;;;;;;18.32;61.50;97055.00;4857373;29;19964;-61
2022/09/09 11:59:26;;;;;;;;;;;;;;;18.26;62.31;97053.53;4852441;29;19928;-62
2022/09/09 12:02:02;;;;;;;;;;;;;;;18.31;60.32;97055.31;4853919;29;20412;-60
2022/09/09 12:04:28;;;;;;;;;;;;;;;18.81;61.21;97043.41;4853752;29;19927;-61
2022/09/09 12:07:05;;;;;;;;;;;;;;;18.77;60.01;97044.34;4857621;29;20179;-60
2022/09/09 12:09:38;;;;;;;2.10;0.40;;;;;;;19.21;59.63;97041.84;4857919;29;20030;-61
2022/09/09 12:12:05;;;;;;;;;;;;;;;19.27;56.37;97043.28;4869625;29;20595;-61
2022/09/09 12:14:37;;;;;;;;;;;;;;;19.56;57.50;97033.69;4895169;29;19928;-60
2022/09/09 12:17:18;;;;;;;;;;;;;;;19.74;56.54;97036.47;4894853;29;20374;-61
2022/09/09 12:19:45;;;;;;;;;;;;;;;19.90;54.54;97031.31;4895181;29;20182;-60
2022/09/09 12:22:30;;;;;;;;;;;;;;;19.85;55.14;97035.03;4894524;29;20398;-61
2022/09/09 12:25:05;;;;;;;;;;;;;;;19.69;53.05;97023.72;4891725;29;20026;-61
2022/09/09 12:27:35;;;;;;;;;;;;;;;20.00;52.68;97027.47;4875509;29;20248;-60
2022/09/09 12:30:04;;;;;;;;;;;;;;;20.28;52.92;97025.22;4876456;29;20012;-61
2022/09/09 12:32:30;;;;;;;;;;;;;;;20.20;50.63;97020.53;4875668;29;20053;-61
2022/09/09 12:34:57;;;;;;;;;;;;;;;20.48;50.64;97024.88;4875657;29;19974;-61
2022/09/09 12:37:23;;;;;;;;;;;;;;;20.42;51.89;97020.69;4876110;29;19938;-61
2022/09/09 12:40:01;;;;;;;;;;;;;;;20.20;52.78;97019.72;4874878;29;19932;-61
2022/09/09 12:42:28;;;;;;;;;;;;;;;19.82;55.33;97027.44;4886231;29;20035;-60
2022/09/09 12:44:55;;;;;;;;;;;;;;;20.07;55.45;97016.00;4894042;29;19927;-61
2022/09/09 12:47:24;;;;;;;;;;;;;;;20.06;54.87;97017.97;4894798;29;19965;-61
2022/09/09 12:49:56;;;;;;;;;;;;;;;20.30;54.21;97026.84;4885329;29;19975;-61
2022/09/09 12:52:32;;;;;;;;;;;;;;;20.79;53.14;97029.34;4874869;29;20386;-61
2022/09/09 12:55:00;;;;;;;;;;;;;;;20.64;53.00;97020.47;4875653;29;20364;-61
2022/09/09 12:57:34;;;;;;;;;;;;;;;20.03;53.02;97007.59;4874996;29;20027;-60
2022/09/09 13:00:11;;;;;;;;;;;;;;;20.41;52.70;97014.38;4875658;29;19928;-60
2022/09/09 13:02:45;;;;;;;;;;;;;;;20.21;53.64;97011.16;4874885;29;20361;-61
2022/09/09 13:05:14;;;;;;;;;;;;;;;20.50;51.61;97000.63;4875427;29;19970;-60
2022/09/09 13:07:41;;;;;;;;;;;;;;;20.82;52.40;97006.66;4876008;29;19974;-60